createdAt,value
2023-05-15T01:05:53.914Z,5.70
2023-05-15T01:08:38.013Z,3.00
2023-05-15T01:11:09.001Z,3.00
2023-05-15T01:13:36.662Z,3.00
2023-05-15T01:16:07.212Z,2.80
2023-05-15T01:18:36.485Z,3.00
2023-05-15T01:21:10.468Z,3.10
2023-05-15T01:24:16.538Z,2.90
2023-05-15T01:27:03.493Z,2.80
2023-05-15T01:29:41.321Z,2.80
2023-05-15T01:32:19.573Z,2.90
2023-05-15T01:35:02.390Z,3.00
2023-05-15T01:37:32.045Z,2.70
2023-05-15T01:40:07.465Z,2.80
2023-05-15T01:42:39.849Z,2.80
2023-05-15T01:45:11.731Z,2.80
2023-05-15T01:47:43.945Z,2.80
2023-05-15T01:50:15.635Z,3.00
2023-05-15T01:52:49.156Z,3.00
2023-05-15T01:55:18.796Z,3.10
2023-05-15T01:57:48.567Z,3.40
2023-05-15T02:00:17.971Z,3.20
2023-05-15T02:02:46.817Z,3.20
2023-05-15T02:05:15.649Z,2.60
2023-05-15T02:07:44.550Z,2.70
2023-05-15T02:10:13.044Z,3.30
2023-05-15T02:12:42.334Z,2.90
2023-05-15T02:15:11.426Z,3.00
2023-05-15T02:17:39.696Z,3.10
2023-05-15T02:20:08.601Z,3.20
2023-05-15T02:22:38.716Z,2.90
2023-05-15T02:25:06.705Z,3.70
2023-05-15T02:27:51.351Z,3.40
2023-05-15T02:30:43.081Z,3.50
2023-05-15T02:33:41.595Z,3.20
2023-05-15T02:36:14.301Z,3.00
2023-05-15T02:38:50.488Z,2.90
2023-05-15T02:41:19.305Z,3.10
2023-05-15T02:43:50.432Z,3.20
2023-05-15T02:46:19.904Z,2.90
2023-05-15T02:48:48.919Z,3.00
2023-05-15T02:51:16.640Z,3.40
2023-05-15T02:53:44.407Z,3.10
2023-05-15T02:56:12.149Z,3.40
2023-05-15T02:58:40.554Z,3.20
2023-05-15T03:01:08.499Z,2.90
2023-05-15T03:03:36.284Z,3.20
2023-05-15T03:06:04.141Z,3.30
2023-05-15T03:08:31.949Z,3.20
2023-05-15T03:10:59.635Z,3.00
2023-05-15T03:13:27.305Z,3.30
2023-05-15T03:15:55.021Z,3.30
2023-05-15T03:18:22.939Z,3.30
2023-05-15T03:20:52.871Z,3.20
2023-05-15T03:23:20.742Z,3.10
2023-05-15T03:25:48.464Z,3.10
2023-05-15T03:28:16.207Z,3.50
2023-05-15T03:30:45.312Z,3.40
2023-05-15T03:33:13.058Z,3.20
2023-05-15T03:35:40.867Z,3.40
2023-05-15T03:38:08.605Z,3.20
2023-05-15T03:40:39.599Z,3.30
2023-05-15T03:43:07.323Z,3.20
2023-05-15T03:45:35.430Z,3.10
2023-05-15T03:48:03.210Z,3.30
2023-05-15T03:50:31.127Z,3.80
2023-05-15T03:53:00.344Z,3.80
2023-05-15T03:55:28.159Z,3.60
2023-05-15T03:57:57.992Z,3.60
2023-05-15T04:00:26.027Z,3.20
2023-05-15T04:02:54.055Z,2.80
2023-05-15T04:05:22.523Z,3.20
2023-05-15T04:07:50.491Z,3.40
2023-05-15T04:10:18.255Z,4.00
2023-05-15T04:12:45.991Z,3.30
2023-05-15T04:15:15.625Z,3.40
2023-05-15T04:17:48.279Z,3.10
2023-05-15T04:20:18.045Z,3.10
2023-05-15T04:22:46.227Z,3.30
2023-05-15T04:25:15.018Z,3.30
2023-05-15T04:27:43.808Z,3.60
2023-05-15T04:30:12.727Z,3.60
2023-05-15T04:32:40.837Z,3.60
2023-05-15T04:35:10.705Z,3.50
2023-05-15T04:37:39.772Z,3.60
2023-05-15T04:40:09.113Z,3.50
2023-05-15T04:42:39.189Z,3.60
2023-05-15T04:45:09.145Z,3.70
2023-05-15T04:47:37.186Z,3.30
2023-05-15T04:50:05.336Z,3.40
2023-05-15T04:52:33.337Z,3.60
2023-05-15T04:55:01.052Z,3.40
2023-05-15T04:57:30.510Z,3.40
2023-05-15T04:59:58.299Z,3.70
2023-05-15T05:02:26.295Z,4.00
2023-05-15T05:04:54.062Z,3.40
2023-05-15T05:07:21.820Z,3.50
2023-05-15T05:09:49.499Z,3.40
2023-05-15T05:12:17.132Z,3.80
2023-05-15T05:14:46.045Z,3.70
2023-05-15T05:17:13.984Z,3.70
2023-05-15T05:19:41.799Z,3.30
2023-05-15T05:22:09.822Z,3.70
2023-05-15T05:24:37.583Z,4.20
2023-05-15T05:27:05.704Z,3.50
2023-05-15T05:29:33.879Z,4.50
2023-05-15T05:32:01.738Z,3.50
2023-05-15T05:34:29.486Z,3.80
2023-05-15T05:36:57.186Z,4.30
2023-05-15T05:39:24.944Z,4.70
2023-05-15T05:41:52.699Z,4.00
2023-05-15T05:44:20.400Z,4.40
2023-05-15T05:46:48.309Z,4.30
2023-05-15T05:49:16.160Z,4.40
2023-05-15T05:51:45.966Z,3.90
2023-05-15T05:54:15.048Z,4.90
2023-05-15T05:56:42.931Z,4.60
2023-05-15T05:59:10.843Z,5.00
2023-05-15T06:01:38.594Z,5.00
2023-05-15T06:04:06.448Z,4.20
2023-05-15T06:06:34.699Z,4.10
2023-05-15T06:09:04.075Z,3.80
2023-05-15T06:11:32.913Z,3.70
2023-05-15T06:14:00.873Z,3.50
2023-05-15T06:16:28.595Z,3.00
2023-05-15T06:18:56.315Z,2.80
2023-05-15T06:21:24.066Z,3.40
2023-05-15T06:23:51.763Z,2.90
2023-05-15T06:26:19.899Z,3.20
2023-05-15T06:28:47.585Z,3.00
2023-05-15T06:31:15.612Z,2.80
2023-05-15T06:33:43.483Z,3.40
2023-05-15T06:36:11.131Z,3.10
2023-05-15T06:38:39.645Z,3.30
2023-05-15T06:41:07.408Z,3.00
2023-05-15T06:43:36.425Z,3.00
2023-05-15T06:46:04.590Z,3.30
2023-05-15T06:48:32.322Z,3.40
2023-05-15T06:51:00.044Z,3.40
2023-05-15T06:53:29.655Z,3.50
2023-05-15T06:55:57.749Z,3.50
2023-05-15T06:58:25.625Z,3.40
2023-05-15T07:00:54.262Z,4.10
2023-05-15T07:03:24.227Z,4.30
2023-05-15T07:05:52.331Z,3.20
2023-05-15T07:08:20.766Z,3.90
2023-05-15T07:10:49.291Z,4.40
2023-05-15T07:13:18.172Z,4.00
2023-05-15T07:15:45.953Z,4.20
2023-05-15T07:18:13.703Z,4.40
2023-05-15T07:20:41.350Z,4.30
2023-05-15T07:23:09.069Z,4.20
2023-05-15T07:25:37.388Z,4.40
2023-05-15T07:28:05.117Z,4.60
2023-05-15T07:30:32.935Z,4.50
2023-05-15T07:33:01.084Z,4.50
2023-05-15T07:35:28.991Z,4.90
2023-05-15T07:37:56.761Z,4.40
2023-05-15T07:40:24.564Z,4.70
2023-05-15T07:42:52.246Z,5.20
2023-05-15T07:45:20.022Z,4.40
2023-05-15T07:47:49.191Z,5.10
2023-05-15T07:50:17.876Z,4.20
2023-05-15T07:52:45.651Z,4.40
2023-05-15T07:55:13.621Z,4.60
2023-05-15T07:57:41.293Z,4.80
2023-05-15T08:00:11.164Z,4.50
2023-05-15T08:02:46.249Z,4.80
2023-05-15T08:05:14.356Z,4.70
2023-05-15T08:07:42.086Z,4.60
2023-05-15T08:10:10.782Z,5.00
2023-05-15T08:12:38.561Z,5.20
2023-05-15T08:15:07.133Z,4.80
2023-05-15T08:17:34.914Z,5.20
2023-05-15T08:20:03.160Z,4.80
2023-05-15T08:22:31.215Z,5.00
2023-05-15T08:25:00.214Z,5.60
2023-05-15T08:27:28.120Z,5.50
2023-05-15T08:29:55.874Z,5.60
2023-05-15T08:32:23.620Z,5.90
2023-05-15T08:34:51.282Z,5.20
2023-05-15T08:37:19.071Z,5.80
2023-05-15T08:39:46.809Z,6.10
2023-05-15T08:42:23.855Z,5.40
2023-05-15T08:44:52.820Z,5.50
2023-05-15T08:47:21.284Z,5.40
2023-05-15T08:49:55.202Z,5.10
2023-05-15T08:52:23.852Z,5.40
2023-05-15T08:54:53.149Z,5.10
2023-05-15T08:57:21.991Z,5.10
2023-05-15T08:59:51.618Z,5.10
2023-05-15T09:02:20.405Z,5.20
2023-05-15T09:04:48.331Z,4.80
2023-05-15T09:07:17.755Z,4.70
2023-05-15T09:09:46.301Z,5.10
2023-05-15T09:12:17.272Z,5.20
2023-05-15T09:14:45.603Z,4.80
2023-05-15T09:17:13.403Z,5.00
2023-05-15T09:19:41.992Z,5.70
2023-05-15T09:22:18.120Z,5.50
2023-05-15T09:24:48.262Z,4.90
2023-05-15T09:27:16.274Z,5.00
2023-05-15T09:29:44.021Z,5.30
2023-05-15T09:32:14.306Z,5.40
2023-05-15T09:34:44.945Z,5.80
2023-05-15T09:37:33.941Z,5.70
2023-05-15T09:40:09.996Z,5.00
2023-05-15T09:42:38.806Z,5.80
2023-05-15T09:45:18.219Z,6.30
2023-05-15T09:47:46.910Z,5.60
2023-05-15T09:50:21.374Z,5.30
2023-05-15T09:52:50.580Z,5.70
2023-05-15T09:55:21.680Z,5.70
2023-05-15T09:58:08.882Z,5.30
2023-05-15T10:00:48.271Z,5.70
2023-05-15T10:03:21.971Z,5.30
2023-05-15T10:05:49.815Z,5.80
2023-05-15T10:08:27.505Z,5.80
2023-05-15T10:11:03.384Z,6.50
2023-05-15T10:13:34.266Z,5.50
2023-05-15T10:16:03.861Z,5.40
2023-05-15T10:18:34.038Z,5.50
2023-05-15T10:21:04.349Z,5.80
2023-05-15T10:23:35.796Z,6.40
2023-05-15T10:26:11.131Z,5.70
2023-05-15T10:28:39.637Z,5.60
2023-05-15T10:31:09.022Z,5.40
2023-05-15T10:33:38.288Z,6.50
2023-05-15T10:36:08.553Z,5.90
2023-05-15T10:38:37.203Z,6.00
2023-05-15T10:41:16.519Z,5.90
2023-05-15T10:43:46.667Z,5.90
2023-05-15T10:46:16.149Z,6.50
2023-05-15T10:48:44.016Z,5.80
2023-05-15T10:51:16.941Z,5.60
2023-05-15T10:53:45.757Z,5.40
2023-05-15T10:56:16.588Z,5.80
2023-05-15T10:58:49.545Z,6.30
2023-05-15T11:01:32.050Z,6.30
2023-05-15T11:06:44.091Z,6.00
2023-05-15T11:09:27.903Z,6.50
2023-05-15T11:11:57.146Z,5.90
2023-05-15T11:14:27.537Z,6.30
2023-05-15T11:16:55.382Z,6.80
2023-05-15T11:19:25.171Z,6.60
2023-05-15T11:22:01.155Z,6.50
2023-05-15T11:24:46.865Z,5.90
2023-05-15T11:27:42.314Z,5.90
2023-05-15T11:30:25.079Z,5.40
2023-05-15T11:33:03.045Z,5.30
2023-05-15T11:35:34.259Z,5.90
2023-05-15T11:38:15.106Z,4.90
2023-05-15T11:40:52.903Z,4.60
2023-05-15T11:43:36.164Z,4.60
2023-05-15T11:46:08.324Z,4.90
2023-05-15T11:48:50.013Z,4.80
2023-05-15T11:51:21.850Z,4.40
2023-05-15T11:53:51.346Z,4.60
2023-05-15T11:56:23.298Z,4.20
2023-05-15T11:58:54.248Z,4.60
2023-05-15T12:01:22.157Z,4.00
2023-05-15T12:03:53.413Z,4.70
2023-05-15T12:06:21.551Z,4.10
2023-05-15T12:08:53.349Z,4.90
2023-05-15T12:11:25.338Z,4.80
2023-05-15T12:13:54.898Z,4.40
2023-05-15T12:16:27.476Z,4.40
2023-05-15T12:18:58.513Z,4.40
2023-05-15T12:21:27.303Z,4.40
2023-05-15T12:24:07.593Z,4.20
2023-05-15T12:26:36.508Z,4.60
2023-05-15T12:29:05.639Z,4.40
2023-05-15T12:31:35.706Z,4.60
2023-05-15T12:34:03.972Z,4.40
2023-05-15T12:36:31.787Z,4.10
2023-05-15T12:39:08.117Z,4.50
2023-05-15T12:41:38.585Z,4.40
2023-05-15T12:44:06.973Z,4.40
2023-05-15T12:46:34.734Z,4.60
2023-05-15T12:49:02.727Z,4.30
2023-05-15T12:51:30.727Z,4.30
2023-05-15T12:53:58.908Z,4.50
2023-05-15T12:56:30.692Z,4.10
2023-05-15T12:59:01.079Z,4.70
2023-05-15T13:01:28.956Z,4.70
2023-05-15T13:03:57.480Z,4.90
2023-05-15T13:06:34.783Z,5.10
2023-05-15T13:09:13.216Z,5.50
2023-05-15T13:11:45.197Z,5.50
2023-05-15T13:14:17.651Z,5.40
2023-05-15T13:16:47.046Z,5.20
2023-05-15T13:19:16.019Z,6.00
2023-05-15T13:21:48.458Z,6.10
2023-05-15T13:24:16.219Z,5.70
2023-05-15T13:26:43.883Z,6.40
2023-05-15T13:29:11.579Z,6.30
2023-05-15T13:31:39.507Z,5.90
2023-05-15T13:34:07.269Z,6.50
2023-05-15T13:36:35.033Z,6.90
2023-05-15T13:39:03.877Z,7.50
2023-05-15T13:41:31.665Z,7.20
2023-05-15T13:44:00.206Z,6.60
2023-05-15T13:46:28.137Z,6.90
2023-05-15T13:48:55.841Z,7.10
2023-05-15T13:51:23.525Z,7.60
2023-05-15T13:53:51.289Z,7.00
2023-05-15T13:56:18.995Z,7.20
2023-05-15T13:58:46.711Z,7.60
2023-05-15T14:01:14.580Z,7.40
2023-05-15T14:03:42.412Z,8.10
2023-05-15T14:06:10.399Z,7.10
2023-05-15T14:08:38.098Z,7.30
2023-05-15T14:11:05.784Z,7.50
2023-05-15T14:13:36.437Z,7.50
2023-05-15T14:16:04.270Z,7.80
2023-05-15T14:18:32.301Z,8.00
2023-05-15T14:21:00.233Z,7.40
2023-05-15T14:23:28.118Z,8.30
2023-05-15T14:25:55.952Z,7.80
2023-05-15T14:28:23.920Z,8.10
2023-05-15T14:30:51.714Z,8.00
2023-05-15T14:33:19.995Z,7.70
2023-05-15T14:35:48.335Z,7.90
2023-05-15T14:38:15.983Z,7.00
2023-05-15T14:40:43.656Z,8.00
2023-05-15T14:43:11.598Z,7.90
2023-05-15T14:45:39.345Z,8.40
2023-05-15T14:48:07.124Z,8.00
2023-05-15T14:50:35.130Z,8.20
2023-05-15T14:53:02.888Z,7.70
2023-05-15T14:55:30.720Z,8.70
2023-05-15T14:57:58.542Z,7.90
2023-05-15T15:00:26.573Z,8.40
2023-05-15T15:02:54.582Z,8.70
2023-05-15T15:05:22.795Z,7.90
2023-05-15T15:08:05.620Z,7.80
2023-05-15T15:10:36.883Z,8.30
2023-05-15T15:13:05.592Z,7.90
2023-05-15T15:15:34.653Z,8.70
2023-05-15T15:18:02.377Z,8.70
2023-05-15T15:20:30.289Z,8.20
2023-05-15T15:22:58.034Z,8.20
2023-05-15T15:25:26.469Z,9.00
2023-05-15T15:27:54.247Z,8.40
2023-05-15T15:30:21.987Z,8.20
2023-05-15T15:32:49.970Z,8.40
2023-05-15T15:35:17.842Z,8.20
2023-05-15T15:37:45.804Z,8.30
2023-05-15T15:40:13.882Z,8.60
2023-05-15T15:42:41.593Z,8.70
2023-05-15T15:45:09.373Z,8.30
2023-05-15T15:47:37.184Z,7.90
2023-05-15T15:50:05.417Z,8.30
2023-05-15T15:52:33.211Z,8.90
2023-05-15T15:55:00.993Z,8.70
2023-05-15T15:57:29.588Z,8.50
2023-05-15T15:59:57.372Z,8.70
2023-05-15T16:02:25.193Z,7.90
2023-05-15T16:04:53.085Z,8.20
2023-05-15T16:07:20.757Z,8.10
2023-05-15T16:09:56.939Z,8.70
2023-05-15T16:12:36.113Z,7.70
2023-05-15T16:15:20.156Z,7.30
2023-05-15T16:17:54.360Z,7.30
2023-05-15T16:22:51.945Z,7.10
2023-05-15T16:25:19.809Z,7.70
2023-05-15T16:27:47.613Z,7.50
2023-05-15T16:30:15.425Z,7.50
2023-05-15T16:32:43.131Z,7.40
2023-05-15T16:35:10.897Z,7.30
2023-05-15T16:37:38.952Z,7.60
2023-05-15T16:40:08.492Z,7.50
2023-05-15T16:42:37.990Z,7.20
2023-05-15T16:45:07.107Z,6.40
2023-05-15T16:47:38.419Z,6.80
2023-05-15T16:50:07.055Z,6.60
2023-05-15T16:52:34.843Z,6.80
2023-05-15T16:55:03.388Z,6.60
2023-05-15T16:57:31.437Z,6.90
2023-05-15T16:59:59.290Z,6.10
2023-05-15T17:02:27.168Z,6.80
2023-05-15T17:04:55.222Z,6.70
2023-05-15T17:07:22.914Z,6.60
2023-05-15T17:09:50.671Z,7.10
2023-05-15T17:12:18.422Z,7.80
2023-05-15T17:14:46.276Z,7.70
2023-05-15T17:17:13.972Z,7.40
2023-05-15T17:19:41.631Z,6.00
2023-05-15T17:22:09.364Z,6.50
2023-05-15T17:24:49.943Z,6.90
2023-05-15T17:27:20.090Z,6.30
2023-05-15T17:29:48.226Z,6.80
2023-05-15T17:32:16.807Z,6.60
2023-05-15T17:34:45.374Z,6.20
2023-05-15T17:37:13.251Z,6.10
2023-05-15T17:39:41.049Z,6.60
2023-05-15T17:42:08.878Z,5.80
2023-05-15T17:44:36.572Z,6.30
2023-05-15T17:47:04.638Z,6.70
2023-05-15T17:49:34.175Z,6.00
2023-05-15T17:52:04.961Z,6.50
2023-05-15T17:54:32.646Z,6.20
2023-05-15T17:57:00.401Z,5.40
2023-05-15T17:59:28.478Z,6.60
2023-05-15T18:01:56.467Z,6.60
2023-05-15T18:04:24.348Z,6.10
2023-05-15T18:06:52.347Z,6.10
2023-05-15T18:09:24.316Z,6.30
2023-05-15T18:11:52.561Z,6.20
2023-05-15T18:14:20.356Z,6.40
2023-05-15T18:16:48.040Z,6.60
2023-05-15T18:19:15.826Z,6.60
2023-05-15T18:21:43.780Z,6.00
2023-05-15T18:24:11.541Z,6.10
2023-05-15T18:26:39.199Z,6.70
2023-05-15T18:29:06.884Z,6.50
2023-05-15T18:31:34.712Z,7.10
2023-05-15T18:34:02.500Z,6.50
2023-05-15T18:36:31.222Z,6.50
2023-05-15T18:38:59.389Z,6.60
2023-05-15T18:41:27.129Z,6.10
2023-05-15T18:43:55.851Z,6.80
2023-05-15T18:46:25.706Z,7.10
2023-05-15T18:48:56.180Z,6.50
2023-05-15T18:51:24.374Z,6.00
2023-05-15T18:53:52.077Z,6.00
2023-05-15T18:56:19.813Z,5.10
2023-05-15T18:58:50.552Z,4.80
2023-05-15T19:01:18.400Z,4.20
2023-05-15T19:03:46.247Z,4.70
2023-05-15T19:06:19.614Z,4.80
2023-05-15T19:08:48.408Z,4.70
2023-05-15T19:11:16.484Z,4.90
2023-05-15T19:13:45.488Z,4.20
2023-05-15T19:16:13.436Z,4.00
2023-05-15T19:18:41.195Z,4.00
2023-05-15T19:21:08.959Z,3.00
2023-05-15T19:23:36.891Z,2.80
2023-05-15T19:26:04.594Z,3.00
2023-05-15T19:28:32.490Z,2.70
2023-05-15T19:31:00.289Z,2.50
2023-05-15T19:33:28.006Z,2.20
2023-05-15T19:35:55.986Z,2.00
2023-05-15T19:38:23.739Z,1.90
2023-05-15T19:40:51.498Z,1.60
2023-05-15T19:43:19.340Z,1.50
2023-05-15T19:45:47.393Z,1.30
2023-05-15T19:48:15.169Z,1.50
2023-05-15T19:50:45.047Z,1.50
2023-05-15T19:53:13.026Z,1.70
2023-05-15T19:55:40.904Z,1.40
2023-05-15T19:58:08.731Z,1.60
2023-05-15T20:00:36.504Z,1.70
2023-05-15T20:03:04.813Z,2.00
2023-05-15T20:05:32.751Z,1.90
2023-05-15T20:08:00.538Z,2.10
2023-05-15T20:10:28.401Z,1.80
2023-05-15T20:12:56.149Z,2.20
2023-05-15T20:15:24.078Z,2.20
2023-05-15T20:17:51.756Z,2.30
2023-05-15T20:20:19.777Z,2.60
2023-05-15T20:22:47.543Z,2.80
2023-05-15T20:25:15.308Z,2.60
2023-05-15T20:27:43.035Z,2.60
2023-05-15T20:30:11.585Z,3.00
2023-05-15T20:32:39.542Z,3.10
2023-05-15T20:35:07.920Z,3.00
2023-05-15T20:37:36.049Z,3.40
2023-05-15T20:40:05.245Z,3.50
2023-05-15T20:42:32.969Z,3.30
2023-05-15T20:45:00.713Z,3.90
2023-05-15T20:47:29.094Z,4.30
2023-05-15T20:49:57.121Z,4.40
2023-05-15T20:52:24.955Z,4.10
2023-05-15T20:54:52.712Z,5.10
2023-05-15T20:57:20.773Z,5.10
2023-05-15T20:59:48.492Z,5.50
2023-05-15T21:02:16.353Z,6.40
2023-05-15T21:04:44.160Z,6.70
2023-05-15T21:07:12.002Z,6.30
2023-05-15T21:09:39.857Z,7.90
2023-05-15T21:12:07.718Z,6.40
2023-05-15T21:14:35.562Z,6.80
2023-05-15T21:17:03.265Z,6.70
2023-05-15T21:19:30.948Z,6.50
2023-05-15T21:21:58.575Z,5.70
2023-05-15T21:24:26.308Z,5.50
2023-05-15T21:26:54.110Z,5.60
2023-05-15T21:29:21.774Z,5.10
2023-05-15T21:31:49.606Z,5.60
2023-05-15T21:34:17.310Z,5.40
2023-05-15T21:36:44.965Z,5.40
2023-05-15T21:39:12.691Z,5.00
2023-05-15T21:41:40.538Z,5.10
2023-05-15T21:44:08.360Z,5.10
2023-05-15T21:46:36.079Z,5.40
2023-05-15T21:49:03.947Z,5.30
2023-05-15T21:51:31.635Z,5.30
2023-05-15T21:53:59.348Z,4.80
2023-05-15T21:56:27.032Z,5.30
2023-05-15T21:58:54.786Z,5.10
2023-05-15T22:01:22.478Z,5.90
2023-05-15T22:03:50.736Z,5.30
2023-05-15T22:06:18.530Z,5.60
2023-05-15T22:08:46.214Z,4.90
2023-05-15T22:11:13.921Z,4.50
2023-05-15T22:13:41.583Z,4.20
2023-05-15T22:16:09.541Z,4.60
2023-05-15T22:18:37.782Z,4.50
2023-05-15T22:21:06.308Z,5.10
2023-05-15T22:23:34.064Z,4.00
2023-05-15T22:26:02.155Z,3.80
2023-05-15T22:28:29.850Z,4.20
2023-05-15T22:30:57.530Z,4.00
2023-05-15T22:33:25.613Z,4.10
2023-05-15T22:35:53.991Z,3.80
2023-05-15T22:38:21.746Z,4.00
2023-05-15T22:40:51.013Z,3.80
2023-05-15T22:43:18.844Z,3.50
2023-05-15T22:45:46.585Z,3.90
2023-05-15T22:48:15.433Z,3.60
2023-05-15T22:50:43.953Z,3.40
2023-05-15T22:53:11.663Z,3.50
2023-05-15T22:55:39.491Z,3.50
2023-05-15T22:58:07.169Z,3.20
2023-05-15T23:00:35.241Z,3.10
2023-05-15T23:03:03.036Z,3.10
2023-05-15T23:05:30.861Z,3.70
2023-05-15T23:07:58.489Z,3.30
2023-05-15T23:10:26.449Z,3.20
2023-05-15T23:12:54.244Z,3.10
2023-05-15T23:15:21.868Z,3.60
2023-05-15T23:17:49.660Z,3.50
2023-05-15T23:20:18.038Z,3.30
2023-05-15T23:22:45.772Z,3.70
2023-05-15T23:25:13.496Z,3.20
2023-05-15T23:27:41.205Z,3.40
2023-05-15T23:30:09.826Z,2.60
2023-05-15T23:32:37.797Z,3.30
2023-05-15T23:35:05.939Z,3.30
2023-05-15T23:37:33.597Z,3.20
2023-05-15T23:40:01.404Z,3.10
2023-05-15T23:42:29.918Z,3.50
2023-05-15T23:44:57.556Z,3.30
2023-05-15T23:47:25.339Z,3.10
2023-05-15T23:49:53.027Z,3.40
2023-05-15T23:52:20.752Z,3.20
2023-05-15T23:54:48.505Z,3.30
2023-05-15T23:57:17.107Z,3.40
2023-05-15T23:59:44.977Z,3.50
